Time;durP1;ratioP1;P1;durP2;ratioP2;P2;SDS_P1;SDS_P2;PMS_P1;PMS_P2;Temp;Humidity;BMP_temperature;BMP_pressure;BME280_temperature;BME280_humidity;BME280_pressure;Samples;Min_cycle;Max_cycle;Signal;HPM_P1;HPM_P2
2022/03/15 00:00:50;;;;;;;41.28;27.40;;;;;;;5.61;90.88;102713.81;5033606;28;20431;-53
2022/03/15 00:03:15;;;;;;;41.55;27.77;;;;;;;5.57;90.72;102699.72;5034167;28;20032;-51
2022/03/15 00:05:41;;;;;;;40.95;26.35;;;;;;;5.53;90.77;102703.97;5034317;28;20432;-50
2022/03/15 00:08:07;;;;;;;40.88;26.35;;;;;;;5.52;91.16;102710.53;5034317;28;20026;-53
2022/03/15 00:10:32;;;;;;;40.15;27.00;;;;;;;5.46;90.67;102703.19;5033855;28;20057;-52
2022/03/15 00:12:57;;;;;;;37.13;26.58;;;;;;;5.47;91.17;102708.47;5033341;28;20075;-52
2022/03/15 00:15:25;;;;;;;41.08;27.92;;;;;;;5.41;91.22;102695.63;5033345;28;20025;-51
2022/03/15 00:17:51;;;;;;;43.85;26.95;;;;;;;5.41;91.28;102698.38;5034269;28;20112;-53
2022/03/15 00:20:22;;;;;;;40.13;26.90;;;;;;;5.42;91.45;102701.97;5033483;28;20036;-51
2022/03/15 00:22:49;;;;;;;39.60;26.75;;;;;;;5.38;90.97;102687.88;5034052;28;20087;-53
2022/03/15 00:25:18;;;;;;;39.42;26.75;;;;;;;5.39;91.32;102694.19;5033234;28;20478;-50
2022/03/15 00:27:45;;;;;;;41.38;26.58;;;;;;;5.39;90.85;102692.28;5033394;28;20037;-51
2022/03/15 00:30:11;;;;;;;41.65;28.08;;;;;;;5.33;90.02;102689.59;5033361;28;20030;-54
2022/03/15 00:32:36;;;;;;;39.17;26.60;;;;;;;5.35;90.88;102693.81;5033266;28;20025;-52
2022/03/15 00:35:07;;;;;;;43.65;28.20;;;;;;;5.31;90.05;102700.78;5033257;28;20117;-53
2022/03/15 00:37:32;;;;;;;39.50;26.33;;;;;;;5.29;89.86;102697.47;5033359;28;20112;-53
2022/03/15 00:39:57;;;;;;;36.78;25.30;;;;;;;5.30;90.56;102697.22;5032914;28;20113;-51
2022/03/15 00:42:23;;;;;;;40.63;27.42;;;;;;;5.31;90.53;102698.03;5032515;28;20114;-53
2022/03/15 00:44:48;;;;;;;39.53;26.92;;;;;;;5.31;91.36;102696.16;5032726;28;20195;-54
2022/03/15 00:47:14;;;;;;;39.85;26.10;;;;;;;5.33;91.27;102700.59;5033258;28;20025;-54
2022/03/15 00:49:39;;;;;;;40.97;26.13;;;;;;;5.32;91.03;102705.22;5032999;28;20512;-53
2022/03/15 00:52:05;;;;;;;39.30;26.67;;;;;;;5.31;90.85;102696.16;5033388;28;20025;-52
2022/03/15 00:54:30;;;;;;;38.33;26.00;;;;;;;5.29;90.83;102689.22;5033124;28;20032;-52
2022/03/15 00:56:56;;;;;;;39.75;25.88;;;;;;;5.33;91.22;102695.94;5032320;28;20535;-51
2022/03/15 00:59:22;;;;;;;39.85;26.70;;;;;;;5.33;91.15;102690.44;5032591;28;20428;-49
2022/03/15 01:01:47;;;;;;;39.90;26.08;;;;;;;5.34;90.46;102692.13;5032205;28;20034;-52
2022/03/15 01:04:12;;;;;;;40.72;26.17;;;;;;;5.36;90.50;102689.13;5033592;28;20025;-51
2022/03/15 01:06:39;;;;;;;41.63;26.55;;;;;;;5.37;90.90;102688.94;5033165;28;20029;-52
2022/03/15 01:09:05;;;;;;;36.20;25.45;;;;;;;5.36;90.80;102680.91;5032706;28;20028;-52
2022/03/15 01:11:30;;;;;;;37.95;26.13;;;;;;;5.35;90.88;102684.72;5032455;28;20041;-54
2022/03/15 01:13:56;;;;;;;40.47;25.92;;;;;;;5.33;90.45;102681.38;5033373;28;20036;-53
2022/03/15 01:16:21;;;;;;;38.72;25.67;;;;;;;5.32;90.48;102688.75;5032216;28;20465;-51
2022/03/15 01:18:46;;;;;;;39.10;26.58;;;;;;;5.30;90.70;102683.50;5032829;28;20486;-51
2022/03/15 01:21:14;;;;;;;36.80;26.10;;;;;;;5.33;90.30;102676.72;5032579;28;20436;-52
2022/03/15 01:23:41;;;;;;;39.85;25.55;;;;;;;5.33;90.32;102682.19;5032779;28;20099;-50
2022/03/15 01:26:06;;;;;;;39.58;25.52;;;;;;;5.34;90.61;102686.63;5032443;28;20035;-50
2022/03/15 01:28:32;;;;;;;37.58;25.33;;;;;;;5.34;90.61;102674.81;5032328;28;20029;-52
2022/03/15 01:30:58;;;;;;;40.28;25.90;;;;;;;5.31;90.24;102670.59;5032170;28;20029;-53
2022/03/15 01:33:23;;;;;;;37.38;24.92;;;;;;;5.31;90.18;102676.94;5032230;28;20025;-50
2022/03/15 01:35:48;;;;;;;39.63;25.60;;;;;;;5.31;90.22;102667.84;5032583;28;20018;-52
2022/03/15 01:38:14;;;;;;;39.47;25.10;;;;;;;5.30;90.63;102672.53;5032555;28;20032;-52
2022/03/15 01:40:39;;;;;;;36.97;24.13;;;;;;;5.30;89.80;102656.06;5032250;28;20492;-53
2022/03/15 01:43:05;;;;;;;36.35;24.27;;;;;;;5.26;89.77;102649.31;5031977;28;20140;-49
2022/03/15 01:45:38;;;;;;;36.20;24.20;;;;;;;5.28;89.76;102657.34;5032043;28;20038;-49
2022/03/15 01:48:04;;;;;;;35.28;24.23;;;;;;;5.28;89.63;102662.84;5032546;28;20094;-52
2022/03/15 01:50:30;;;;;;;35.08;24.63;;;;;;;5.25;90.09;102661.38;5032134;28;20565;-52
2022/03/15 01:52:55;;;;;;;36.25;24.42;;;;;;;5.25;89.94;102655.06;5031410;28;20108;-50
2022/03/15 01:55:21;;;;;;;36.83;24.98;;;;;;;5.20;90.17;102647.50;5035045;28;20033;-53
2022/03/15 01:57:47;;;;;;;38.28;24.13;;;;;;;5.20;90.15;102642.00;5036118;28;20057;-51
2022/03/15 02:00:14;;;;;;;36.67;24.67;;;;;;;5.19;89.51;102650.47;5036548;28;20025;-51
2022/03/15 02:02:39;;;;;;;34.72;24.30;;;;;;;5.19;90.04;102642.25;5035916;28;20029;-53
2022/03/15 02:05:05;;;;;;;36.38;23.98;;;;;;;5.17;89.71;102636.97;5035761;28;20362;-53
2022/03/15 02:07:30;;;;;;;35.58;23.92;;;;;;;5.16;90.17;102640.75;5036027;28;20393;-51
2022/03/15 02:09:56;;;;;;;34.85;24.13;;;;;;;5.16;89.77;102643.50;5035560;28;20025;-51
2022/03/15 02:12:21;;;;;;;34.42;23.42;;;;;;;5.17;89.63;102647.94;5035889;28;20413;-53
2022/03/15 02:14:46;;;;;;;33.72;23.45;;;;;;;5.15;90.24;102644.56;5036323;28;20021;-53
2022/03/15 02:17:11;;;;;;;34.47;24.30;;;;;;;5.15;89.58;102637.19;5034914;28;20021;-51
2022/03/15 02:19:37;;;;;;;35.47;23.83;;;;;;;5.13;89.76;102633.84;5035390;28;20073;-50
2022/03/15 02:22:03;;;;;;;33.25;23.30;;;;;;;5.17;90.15;102631.47;5035993;28;20389;-51
2022/03/15 02:24:28;;;;;;;34.08;23.27;;;;;;;5.17;89.67;102633.38;5035813;28;20486;-51
2022/03/15 02:26:54;;;;;;;33.45;23.33;;;;;;;5.15;89.36;102630.84;5035739;28;20021;-51
2022/03/15 02:29:20;;;;;;;34.10;22.65;;;;;;;5.15;90.23;102633.59;5035574;28;20032;-51
2022/03/15 02:31:46;;;;;;;33.05;22.23;;;;;;;5.15;89.49;102625.38;5035810;28;20566;-52
2022/03/15 02:34:11;;;;;;;37.03;24.38;;;;;;;5.13;90.13;102617.38;5035301;28;20112;-52
2022/03/15 02:36:36;;;;;;;34.08;23.95;;;;;;;5.14;89.68;102615.47;5035515;28;20025;-50
2022/03/15 02:39:02;;;;;;;34.95;23.48;;;;;;;5.14;89.46;102616.31;5035594;28;20032;-49
2022/03/15 02:41:27;;;;;;;35.15;23.27;;;;;;;5.14;89.70;102618.22;5035818;28;20087;-50
2022/03/15 02:43:53;;;;;;;33.08;23.27;;;;;;;5.12;89.91;102612.13;5035759;28;20025;-51
2022/03/15 02:46:18;;;;;;;38.53;24.33;;;;;;;5.11;89.68;102603.03;5035363;28;20032;-50
2022/03/15 02:48:43;;;;;;;35.45;23.48;;;;;;;5.12;89.09;102606.63;5035798;28;20025;-49
2022/03/15 02:51:10;;;;;;;36.70;24.17;;;;;;;5.11;89.79;102607.69;5034859;28;20045;-53
2022/03/15 02:53:39;;;;;;;33.10;22.90;;;;;;;5.10;89.18;102606.00;5035737;28;20032;-53
2022/03/15 02:56:10;;;;;;;32.95;23.92;;;;;;;5.08;89.97;102597.16;5035688;28;20026;-52
2022/03/15 02:58:37;;;;;;;37.17;23.38;;;;;;;5.07;89.33;102599.09;5034708;28;20470;-52
2022/03/15 03:01:03;;;;;;;36.40;23.23;;;;;;;5.06;89.95;102585.56;5034754;28;20496;-52
2022/03/15 03:03:28;;;;;;;36.10;24.85;;;;;;;5.06;89.72;102599.28;5035355;28;20026;-52
2022/03/15 03:05:53;;;;;;;35.20;22.92;;;;;;;5.06;89.50;102586.44;5033900;28;20022;-50
2022/03/15 03:08:20;;;;;;;34.42;23.20;;;;;;;5.05;89.15;102590.22;5034899;28;20036;-52
2022/03/15 03:10:46;;;;;;;35.20;22.92;;;;;;;5.06;89.65;102586.44;5058846;23;20059;-57
2022/03/15 03:13:11;;;;;;;33.95;23.80;;;;;;;5.09;89.39;102585.97;5052268;28;20020;-57
2022/03/15 03:15:36;;;;;;;34.53;23.38;;;;;;;5.07;89.01;102574.38;5053635;28;20033;-56
2022/03/15 03:18:02;;;;;;;32.60;22.38;;;;;;;5.06;89.28;102572.72;5053678;28;20060;-55
2022/03/15 03:20:30;;;;;;;33.38;22.48;;;;;;;5.05;89.04;102571.03;5052981;28;20029;-59
2022/03/15 03:22:55;;;;;;;34.50;22.67;;;;;;;5.07;88.95;102565.31;5054209;28;20036;-60
2022/03/15 03:25:21;;;;;;;35.30;23.38;;;;;;;5.02;89.51;102556.94;5053576;28;20017;-59
2022/03/15 03:27:47;;;;;;;33.78;22.77;;;;;;;5.00;89.59;102568.13;5053938;28;20098;-59
2022/03/15 03:30:13;;;;;;;31.98;22.98;;;;;;;5.00;89.45;102565.41;5054738;28;20029;-58
2022/03/15 03:32:38;;;;;;;30.98;21.92;;;;;;;4.97;89.28;102566.66;5054091;28;20596;-57
2022/03/15 03:35:04;;;;;;;33.70;23.00;;;;;;;4.97;89.50;102560.34;5054570;28;20108;-56
2022/03/15 03:37:30;;;;;;;34.15;22.77;;;;;;;4.96;88.95;102556.75;5053400;28;20090;-58
2022/03/15 03:39:56;;;;;;;35.08;23.40;;;;;;;4.95;89.45;102559.72;5053968;28;20179;-59
2022/03/15 03:42:21;;;;;;;32.53;22.85;;;;;;;4.97;89.64;102566.66;5053511;28;20108;-56
2022/03/15 03:44:46;;;;;;;31.98;21.63;;;;;;;4.95;89.16;102563.34;5054069;28;20439;-58
2022/03/15 03:47:12;;;;;;;32.10;22.95;;;;;;;4.93;89.30;102561.84;5054166;28;20123;-58
2022/03/15 03:49:40;;;;;;;33.47;23.38;;;;;;;4.92;88.98;102554.69;5054185;28;20032;-58
2022/03/15 03:52:06;;;;;;;32.25;21.60;;;;;;;4.90;89.23;102546.69;5053726;28;20025;-58
2022/03/15 03:54:32;;;;;;;32.70;23.00;;;;;;;4.89;89.22;102555.97;5052974;28;20384;-58
2022/03/15 03:56:58;;;;;;;32.47;22.35;;;;;;;4.88;89.27;102554.31;5054073;28;20470;-58
2022/03/15 03:59:23;;;;;;;32.65;22.23;;;;;;;4.88;88.90;102561.72;5053409;28;20111;-58
2022/03/15 04:01:49;;;;;;;35.78;22.25;;;;;;;4.88;89.27;102559.78;5053617;28;20029;-57
2022/03/15 04:04:14;;;;;;;31.77;22.10;;;;;;;4.81;89.73;102543.44;5053611;28;20488;-60
2022/03/15 04:06:40;;;;;;;31.10;22.10;;;;;;;4.87;89.15;102555.38;5053796;28;20025;-58
2022/03/15 04:09:06;;;;;;;34.50;22.23;;;;;;;4.84;89.95;102562.16;5053369;28;20450;-57
2022/03/15 04:11:32;;;;;;;30.50;21.13;;;;;;;4.81;90.06;102554.38;5052610;28;20057;-56
2022/03/15 04:14:00;;;;;;;31.15;21.98;;;;;;;4.77;89.40;102555.88;5053250;28;20048;-56
2022/03/15 04:16:26;;;;;;;35.75;22.95;;;;;;;4.75;89.93;102559.94;5053217;28;20028;-55
2022/03/15 04:18:51;;;;;;;32.80;22.25;;;;;;;4.72;89.80;102561.22;5053132;28;20074;-56
2022/03/15 04:21:18;;;;;;;31.95;22.90;;;;;;;4.72;90.26;102568.59;5053296;28;20056;-57
2022/03/15 04:23:45;;;;;;;35.83;22.33;;;;;;;4.74;90.12;102561.00;5052525;28;20025;-56
2022/03/15 04:26:10;;;;;;;32.63;22.17;;;;;;;4.71;89.91;102559.53;5053439;28;20048;-57
2022/03/15 04:28:35;;;;;;;31.50;23.20;;;;;;;4.69;90.33;102554.25;5052410;28;20047;-55
2022/03/15 04:31:00;;;;;;;31.10;22.08;;;;;;;4.69;89.88;102559.75;5052974;28;20464;-58
2022/03/15 04:33:26;;;;;;;33.00;22.40;;;;;;;4.70;89.90;102560.59;5052330;28;20025;-57
2022/03/15 04:35:51;;;;;;;32.33;21.40;;;;;;;4.72;89.81;102561.22;5053017;28;20477;-58
2022/03/15 04:38:17;;;;;;;34.05;22.17;;;;;;;4.74;89.63;102558.25;5052849;28;20025;-58
2022/03/15 04:40:42;;;;;;;32.67;21.70;;;;;;;4.76;89.63;102548.72;5052771;28;20120;-58
2022/03/15 04:43:07;;;;;;;31.52;20.77;;;;;;;4.75;89.87;102549.78;5053190;28;20037;-57
2022/03/15 04:45:32;;;;;;;29.77;21.55;;;;;;;4.77;89.81;102547.66;5052632;28;20021;-57
2022/03/15 04:47:58;;;;;;;30.73;21.10;;;;;;;4.68;89.22;102544.34;5052853;28;20025;-58
2022/03/15 04:50:23;;;;;;;30.13;21.17;;;;;;;4.74;89.39;102550.84;5053158;28;20028;-57
2022/03/15 04:52:49;;;;;;;30.92;21.75;;;;;;;4.68;89.83;102538.88;5051780;28;20112;-58
2022/03/15 04:55:14;;;;;;;31.65;21.55;;;;;;;4.64;89.93;102547.78;5053124;28;20036;-58
2022/03/15 04:57:39;;;;;;;35.20;21.98;;;;;;;4.62;90.07;102541.69;5051245;28;20031;-56
2022/03/15 05:00:08;;;;;;;33.15;21.92;;;;;;;4.59;90.01;102548.44;5053031;28;20021;-58
2022/03/15 05:02:35;;;;;;;30.55;21.13;;;;;;;4.59;90.58;102539.41;5052420;28;20037;-58
2022/03/15 05:05:00;;;;;;;32.28;21.65;;;;;;;4.59;90.02;102539.41;5052639;28;20520;-58
2022/03/15 05:07:25;;;;;;;31.35;21.75;;;;;;;4.62;90.00;102538.97;5052865;28;20104;-57
2022/03/15 05:12:35;;;;;;;29.85;20.25;;;;;;;4.62;89.99;102538.97;5052638;28;20147;-57
2022/03/15 05:15:00;;;;;;;30.60;21.38;;;;;;;4.60;89.79;102535.59;5052122;28;20124;-57
2022/03/15 05:17:26;;;;;;;31.42;21.58;;;;;;;4.58;89.69;102533.06;5051376;28;20307;-57
2022/03/15 05:19:52;;;;;;;29.25;20.77;;;;;;;4.57;89.94;102534.16;5051925;28;20021;-57
2022/03/15 05:22:17;;;;;;;32.80;21.00;;;;;;;4.59;90.37;102533.91;5052442;28;20021;-57
2022/03/15 05:24:42;;;;;;;30.58;20.75;;;;;;;4.59;90.21;102522.94;5052189;28;20025;-56
2022/03/15 05:27:09;;;;;;;31.50;21.88;;;;;;;4.59;89.45;102526.50;5051672;28;20029;-56
2022/03/15 05:29:34;;;;;;;30.23;20.90;;;;;;;4.58;89.52;102533.06;5051305;28;20033;-57
2022/03/15 05:32:00;;;;;;;30.63;21.17;;;;;;;4.59;89.66;102523.78;5052185;28;20032;-56
2022/03/15 05:34:25;;;;;;;31.17;21.13;;;;;;;4.61;89.39;102540.84;5051503;28;20107;-56
2022/03/15 05:36:52;;;;;;;29.10;21.08;;;;;;;4.60;89.53;102530.13;5052014;28;20025;-57
2022/03/15 05:39:17;;;;;;;33.08;21.70;;;;;;;4.55;89.80;102521.69;5051852;28;20032;-56
2022/03/15 05:41:42;;;;;;;31.00;20.88;;;;;;;4.53;89.78;102516.47;5051768;28;20393;-57
2022/03/15 05:44:07;;;;;;;31.23;21.52;;;;;;;4.53;89.42;102528.25;5052095;28;20040;-55
2022/03/15 05:46:34;;;;;;;29.38;20.92;;;;;;;4.56;89.89;102518.75;5051726;28;20032;-56
2022/03/15 05:48:59;;;;;;;28.65;21.08;;;;;;;4.56;89.69;102520.66;5051271;28;20025;-56
2022/03/15 05:51:24;;;;;;;32.20;21.85;;;;;;;4.55;89.17;102517.06;5052182;28;20119;-58
2022/03/15 05:53:49;;;;;;;31.10;21.73;;;;;;;4.55;89.74;102514.34;5051803;28;20036;-57
2022/03/15 05:56:15;;;;;;;30.77;21.77;;;;;;;4.55;89.33;102513.47;5050632;28;20028;-57
2022/03/15 05:58:42;;;;;;;28.67;20.95;;;;;;;4.55;89.43;102508.00;5051760;28;20060;-57
2022/03/15 06:01:07;;;;;;;30.95;21.15;;;;;;;4.55;89.66;102506.13;5051605;28;20079;-57
2022/03/15 06:03:32;;;;;;;30.60;21.67;;;;;;;4.57;89.08;102509.47;5050869;28;20033;-58
2022/03/15 06:05:57;;;;;;;29.20;20.80;;;;;;;4.60;89.44;102505.44;5051869;28;20376;-57
2022/03/15 06:08:23;;;;;;;32.85;22.38;;;;;;;4.58;89.93;102513.88;5051226;28;20029;-57
2022/03/15 06:10:48;;;;;;;30.85;21.58;;;;;;;4.60;89.28;102510.91;5051474;28;20059;-57
2022/03/15 06:13:13;;;;;;;30.13;20.85;;;;;;;4.62;89.45;102515.09;5051957;28;20025;-57
2022/03/15 06:15:38;;;;;;;30.77;21.35;;;;;;;4.61;88.93;102512.59;5051405;28;20491;-56
2022/03/15 06:18:05;;;;;;;30.75;22.00;;;;;;;4.60;89.39;102502.69;5051189;28;20037;-56
2022/03/15 06:20:30;;;;;;;30.10;21.55;;;;;;;4.59;89.17;102501.00;5051482;28;20021;-58
2022/03/15 06:22:56;;;;;;;29.58;21.48;;;;;;;4.61;89.25;102494.25;5051604;28;20029;-57
2022/03/15 06:25:23;;;;;;;32.75;21.50;;;;;;;4.63;89.33;102492.13;5051538;28;20032;-57
2022/03/15 06:27:49;;;;;;;29.70;22.05;;;;;;;4.67;89.08;102497.97;5051345;28;20021;-57
2022/03/15 06:30:19;;;;;;;31.08;20.83;;;;;;;4.69;88.77;102501.34;5051318;28;20029;-57
2022/03/15 06:32:44;;;;;;;30.58;21.35;;;;;;;4.75;88.62;102499.59;5051264;28;20518;-57
2022/03/15 06:35:12;;;;;;;31.08;20.95;;;;;;;4.75;88.32;102496.88;5051607;28;20029;-57
2022/03/15 06:37:44;;;;;;;29.70;20.85;;;;;;;4.77;88.78;102498.31;5051996;28;20100;-58
2022/03/15 06:40:10;;;;;;;29.77;21.17;;;;;;;4.80;88.37;102499.75;5052756;28;20033;-58
2022/03/15 06:42:38;;;;;;;27.75;19.95;;;;;;;4.79;88.31;102493.44;5055273;28;20040;-57
2022/03/15 06:45:04;;;;;;;28.40;19.92;;;;;;;4.78;88.14;102485.41;5053515;28;20033;-57
2022/03/15 06:47:29;;;;;;;28.30;20.65;;;;;;;4.79;88.30;102490.69;5054468;28;20025;-57
2022/03/15 06:49:55;;;;;;;32.00;21.02;;;;;;;4.82;88.17;102486.66;5055357;28;20028;-57
2022/03/15 06:52:20;;;;;;;29.63;20.30;;;;;;;4.86;87.82;102487.03;5054696;28;20103;-58
2022/03/15 06:54:46;;;;;;;29.13;19.80;;;;;;;4.90;88.04;102489.09;5054854;28;20040;-58
2022/03/15 06:57:11;;;;;;;28.55;20.35;;;;;;;4.92;87.98;102488.88;5055126;28;20029;-58
2022/03/15 06:59:36;;;;;;;29.70;20.10;;;;;;;4.95;87.40;102483.78;5054452;28;20051;-58
2022/03/15 07:02:02;;;;;;;28.05;19.55;;;;;;;4.97;87.31;102483.56;5054564;28;20032;-58
2022/03/15 07:04:27;;;;;;;27.88;18.85;;;;;;;5.00;87.70;102475.69;5053519;28;20051;-58
2022/03/15 07:06:52;;;;;;;29.00;19.83;;;;;;;5.04;86.95;102476.06;5055020;28;20025;-57
2022/03/15 07:09:18;;;;;;;30.95;18.77;;;;;;;5.06;87.51;102482.19;5054943;28;20017;-58
2022/03/15 07:11:43;;;;;;;28.52;19.30;;;;;;;5.08;87.13;102485.53;5054253;28;20052;-57
2022/03/15 07:14:08;;;;;;;29.00;19.45;;;;;;;5.12;86.55;102485.91;5055012;28;20032;-57
2022/03/15 07:16:34;;;;;;;29.58;19.17;;;;;;;5.13;86.71;102480.19;5054538;28;20488;-57
2022/03/15 07:18:59;;;;;;;28.10;18.00;;;;;;;5.18;86.38;102481.44;5054348;28;20069;-56
2022/03/15 07:21:25;;;;;;;26.65;17.50;;;;;;;5.23;86.28;102485.16;5054218;28;20092;-57
2022/03/15 07:23:50;;;;;;;26.50;17.20;;;;;;;5.26;86.37;102478.38;5054486;28;20107;-56
2022/03/15 07:26:16;;;;;;;28.15;17.15;;;;;;;5.34;86.25;102471.75;5054530;28;20492;-57
2022/03/15 07:28:41;;;;;;;26.55;16.52;;;;;;;5.39;86.66;102474.59;5054523;28;20033;-57
2022/03/15 07:31:06;;;;;;;30.30;17.30;;;;;;;5.43;85.32;102470.34;5054251;28;20025;-57
2022/03/15 07:33:32;;;;;;;26.38;16.88;;;;;;;5.42;85.62;102455.78;5052596;28;20028;-57
2022/03/15 07:35:59;;;;;;;27.10;17.67;;;;;;;5.46;85.56;102461.63;5053611;28;20057;-56
2022/03/15 07:38:25;;;;;;;26.58;17.40;;;;;;;5.49;84.98;102461.19;5044278;28;20030;-57
2022/03/15 07:40:52;;;;;;;25.85;17.15;;;;;;;5.54;85.40;102465.97;5031477;28;20025;-57
2022/03/15 07:43:19;;;;;;;26.38;16.83;;;;;;;5.57;85.10;102449.03;5031883;28;20102;-56
2022/03/15 07:45:44;;;;;;;27.55;17.13;;;;;;;5.56;84.92;102445.44;5031811;28;20140;-58
2022/03/15 07:48:09;;;;;;;25.52;16.77;;;;;;;5.60;84.75;102445.81;5031973;28;20570;-58
2022/03/15 07:50:35;;;;;;;26.70;17.25;;;;;;;5.63;85.09;102451.66;5032181;28;20026;-57
2022/03/15 07:53:00;;;;;;;26.38;16.73;;;;;;;5.68;84.96;102444.66;5037483;28;20040;-56
2022/03/15 07:55:26;;;;;;;25.23;17.20;;;;;;;5.69;84.73;102441.66;5038987;28;20481;-57
2022/03/15 07:57:51;;;;;;;27.23;16.95;;;;;;;5.75;85.09;102448.13;5031842;28;20031;-57
2022/03/15 08:00:17;;;;;;;26.65;16.60;;;;;;;5.78;84.49;102448.50;5031394;28;20083;-57
2022/03/15 08:02:42;;;;;;;25.35;16.17;;;;;;;5.82;85.07;102448.88;5031358;28;20040;-57
2022/03/15 08:05:09;;;;;;;29.80;16.95;;;;;;;5.87;84.91;102456.41;5031655;28;20108;-57
2022/03/15 08:07:36;;;;;;;26.73;18.17;;;;;;;5.92;84.60;102457.38;5031278;28;20041;-57
2022/03/15 08:10:03;;;;;;;27.42;16.83;;;;;;;5.98;84.32;102441.03;5031291;28;20034;-57
2022/03/15 08:12:29;;;;;;;25.33;16.73;;;;;;;6.07;84.63;102450.66;5032053;28;20091;-57
2022/03/15 08:14:54;;;;;;;34.65;22.35;;;;;;;6.09;83.60;102441.09;5031349;28;20025;-55
2022/03/15 08:17:20;;;;;;;27.27;17.75;;;;;;;6.16;84.08;102448.38;5031102;28;20047;-57
2022/03/15 08:19:45;;;;;;;25.30;16.60;;;;;;;6.22;83.72;102439.19;5031577;28;20536;-57
2022/03/15 08:22:10;;;;;;;25.52;15.80;;;;;;;6.28;82.81;102440.97;5031413;28;20029;-57
2022/03/15 08:24:36;;;;;;;28.65;15.35;;;;;;;6.35;83.22;102443.63;5031363;28;20029;-58
2022/03/15 08:27:01;;;;;;;23.50;15.13;;;;;;;6.40;83.03;102436.34;5031186;28;20052;-58
2022/03/15 08:29:26;;;;;;;24.85;14.52;;;;;;;6.46;82.94;102441.94;5030867;28;20124;-57
2022/03/15 08:31:52;;;;;;;23.98;14.68;;;;;;;6.47;82.90;102429.88;5029222;28;20029;-57
2022/03/15 08:34:17;;;;;;;23.23;13.90;;;;;;;6.51;81.84;102434.66;5034801;28;20433;-57
2022/03/15 08:36:44;;;;;;;22.88;13.27;;;;;;;6.55;81.71;102433.09;5050987;28;20025;-57
2022/03/15 08:39:09;;;;;;;22.38;13.77;;;;;;;6.62;81.93;102441.22;5051004;28;20488;-58
2022/03/15 08:41:34;;;;;;;22.15;14.13;;;;;;;6.66;81.60;102430.59;5050992;28;20040;-56
2022/03/15 08:44:00;;;;;;;24.77;13.65;;;;;;;6.71;82.07;102422.44;5050783;28;20055;-57
2022/03/15 08:46:25;;;;;;;23.70;13.48;;;;;;;6.75;81.34;102425.53;5050472;28;20044;-55
2022/03/15 08:48:50;;;;;;;24.77;14.07;;;;;;;6.79;81.17;102419.31;5049729;28;20025;-57
2022/03/15 08:51:16;;;;;;;21.88;13.68;;;;;;;6.86;80.60;102419.19;5051172;28;20185;-57
2022/03/15 08:53:41;;;;;;;24.30;14.65;;;;;;;6.90;80.20;102420.38;5050895;28;20032;-56
2022/03/15 08:56:06;;;;;;;26.10;14.55;;;;;;;6.93;80.40;102417.13;5050940;28;20029;-56
2022/03/15 08:58:31;;;;;;;22.50;13.80;;;;;;;6.99;80.50;102418.91;5050395;28;20467;-59
2022/03/15 09:00:57;;;;;;;23.08;13.80;;;;;;;7.05;80.22;102414.34;5050167;28;20086;-57
2022/03/15 09:03:25;;;;;;;24.50;14.25;;;;;;;7.12;80.26;102417.81;5050149;28;20025;-56
2022/03/15 09:05:50;;;;;;;23.13;13.95;;;;;;;7.19;80.32;102412.16;5050216;28;20033;-57
2022/03/15 09:08:16;;;;;;;24.35;14.50;;;;;;;7.26;80.30;102410.13;5050354;28;20043;-56
2022/03/15 09:10:44;;;;;;;22.77;14.27;;;;;;;7.29;80.23;102400.53;5050618;28;20057;-58
2022/03/15 09:13:10;;;;;;;26.17;14.63;;;;;;;7.36;80.37;102401.19;5048592;28;20029;-58
2022/03/15 09:15:36;;;;;;;21.00;13.93;;;;;;;7.44;79.78;102394.47;5050539;28;20444;-57
2022/03/15 09:18:02;;;;;;;24.40;14.93;;;;;;;7.52;79.58;102394.06;5048899;28;20032;-57
2022/03/15 09:20:28;;;;;;;24.42;14.00;;;;;;;7.59;79.29;102396.69;5049991;28;20025;-57
2022/03/15 09:22:54;;;;;;;23.63;14.32;;;;;;;7.62;79.20;102397.00;5050794;28;20037;-57
2022/03/15 09:25:19;;;;;;;22.85;14.45;;;;;;;7.66;79.23;102394.59;5049373;28;20036;-56
2022/03/15 09:27:46;;;;;;;23.13;14.15;;;;;;;7.75;79.44;102393.09;5050723;28;20404;-60
2022/03/15 09:30:13;;;;;;;24.50;13.85;;;;;;;7.81;78.79;102397.59;5047553;28;20322;-57
2022/03/15 09:32:38;;;;;;;31.58;18.63;;;;;;;7.87;78.70;102395.78;5050567;28;20067;-55
2022/03/15 09:35:04;;;;;;;24.20;15.52;;;;;;;7.94;78.25;102401.94;5050807;28;20052;-57
2022/03/15 09:37:30;;;;;;;31.65;17.77;;;;;;;8.03;78.20;102393.28;5050775;28;20037;-56
2022/03/15 09:39:57;;;;;;;23.17;14.43;;;;;;;8.06;77.67;102396.38;5048514;28;20458;-57
2022/03/15 09:42:24;;;;;;;21.48;13.65;;;;;;;8.10;77.01;102400.28;5049873;28;20019;-57
2022/03/15 09:44:51;;;;;;;24.23;13.98;;;;;;;8.11;77.21;102384.59;5049970;28;20561;-57
2022/03/15 09:47:17;;;;;;;25.23;13.98;;;;;;;8.27;76.96;102389.25;5049839;28;20424;-58
2022/03/15 09:49:44;;;;;;;22.45;13.48;;;;;;;8.38;76.11;102392.97;5050020;28;20061;-58
2022/03/15 09:52:11;;;;;;;25.40;13.95;;;;;;;8.46;75.48;102388.97;5049881;28;20182;-57
2022/03/15 09:54:38;;;;;;;22.75;13.32;;;;;;;8.46;74.67;102377.09;5049799;28;20036;-58
2022/03/15 09:57:05;;;;;;;22.92;14.20;;;;;;;8.56;74.45;102391.06;5049699;28;20100;-57
2022/03/15 09:59:32;;;;;;;24.95;14.32;;;;;;;8.59;74.29;102393.31;5049591;28;20028;-57
2022/03/15 10:01:59;;;;;;;23.08;13.35;;;;;;;8.61;73.70;102390.28;5049560;28;20449;-57
2022/03/15 10:04:26;;;;;;;22.05;13.10;;;;;;;8.61;73.47;102390.28;5049812;28;20107;-57
2022/03/15 10:06:52;;;;;;;23.02;13.02;;;;;;;8.65;73.66;102394.22;5049979;28;20239;-56
2022/03/15 10:09:18;;;;;;;23.67;13.52;;;;;;;8.67;72.73;102387.34;5049831;28;20040;-56
2022/03/15 10:11:44;;;;;;;21.70;13.43;;;;;;;8.67;72.63;102384.59;5049365;28;20048;-57
2022/03/15 10:14:10;;;;;;;22.15;14.02;;;;;;;8.68;72.01;102385.44;5049974;28;20040;-57
2022/03/15 10:16:40;;;;;;;23.23;13.35;;;;;;;8.69;72.02;102373.31;5052851;28;20059;-56
2022/03/15 10:19:08;;;;;;;23.85;13.65;;;;;;;8.78;72.73;102376.44;5053544;28;20039;-58
2022/03/15 10:21:39;;;;;;;22.38;13.45;;;;;;;8.86;72.57;102381.50;5053220;28;20132;-57
2022/03/15 10:24:06;;;;;;;21.73;12.63;;;;;;;8.89;71.83;102372.72;5053064;28;20049;-56
2022/03/15 10:26:37;;;;;;;21.10;12.20;;;;;;;8.98;71.48;102375.84;5053320;28;20029;-56
2022/03/15 10:29:02;;;;;;;22.73;12.85;;;;;;;9.02;71.56;102363.22;5053320;28;20029;-57
2022/03/15 10:31:29;;;;;;;25.20;13.27;;;;;;;9.05;71.31;102359.97;5051371;28;20035;-57
2022/03/15 10:34:00;;;;;;;21.60;13.57;;;;;;;9.09;71.73;102358.31;5047779;28;20083;-56
2022/03/15 10:36:26;;;;;;;24.10;13.80;;;;;;;9.14;71.61;102357.56;5041834;28;20025;-57
2022/03/15 10:38:52;;;;;;;21.52;12.77;;;;;;;9.16;71.19;102352.59;5042807;28;20427;-56
2022/03/15 10:41:19;;;;;;;21.90;13.40;;;;;;;9.16;70.69;102349.84;5043049;28;20029;-57
2022/03/15 10:43:50;;;;;;;23.50;13.55;;;;;;;9.19;70.02;102346.56;5041482;28;20109;-57
2022/03/15 10:46:22;;;;;;;23.85;13.20;;;;;;;9.25;70.41;102339.19;5041997;28;20460;-57
2022/03/15 10:48:59;;;;;;;24.23;13.38;;;;;;;9.30;70.38;102331.78;5037015;28;20502;-56
2022/03/15 10:51:24;;;;;;;25.48;13.50;;;;;;;9.40;70.26;102331.03;5051817;28;20090;-57
2022/03/15 10:53:50;;;;;;;21.90;13.07;;;;;;;9.46;69.38;102331.91;5052656;28;20032;-56
2022/03/15 10:56:23;;;;;;;23.13;13.50;;;;;;;9.51;69.59;102330.03;5052392;28;20068;-57
2022/03/15 10:58:51;;;;;;;22.30;12.97;;;;;;;9.49;69.50;102323.13;5052416;28;20203;-57
2022/03/15 11:01:21;;;;;;;23.52;13.73;;;;;;;9.54;70.54;102325.09;5052342;28;20291;-57
2022/03/15 11:04:07;;;;;;;21.80;13.65;;;;;;;9.59;70.80;102305.78;5050912;28;20496;-58
2022/03/15 11:06:38;;;;;;;22.75;13.68;;;;;;;9.73;70.05;102320.81;5051863;28;20083;-57
2022/03/15 11:09:21;;;;;;;22.92;14.10;;;;;;;9.81;70.25;102311.19;5051548;28;20036;-58
2022/03/15 11:12:06;;;;;;;25.38;14.30;;;;;;;9.76;69.48;102303.72;5051977;28;20416;-57
2022/03/15 11:14:45;;;;;;;23.38;13.82;;;;;;;9.80;69.57;102307.63;5051926;28;20458;-57